Details From OMDB - DUBAI INTL
To OAIX - BAGRAM
Flight Number -
Tags decoded
Created
Modified
Stats Distance 940 nm / 1,741 km
Max Altitude 0 ft / 0 m
Waypoints 3
Social Downloads 0
Likes 0
Share VATSIM

Download

Looking for another format? Having issues loading an existing format? Contact us
Advertisement - Login to hide

Notes

Requested: OMDB DAVMO Y601 GABKO M317 RADEB M318 KHM A453 TAPIS OAIX Unmatched points: DAVMO Y601 M317 RADEB M318 A453 TAPIS

Route

OMDB KHM OAIX

ID Type Via Altitude Latitude Longitude Leg Dist Tot Dist Heading (true) Name
O OMDB APT - 0 ft / 0 m 25.25491˚ 55.36426˚ - 0 nm - DUBAI INTL
KHM NDB - 0 ft / 0 m 26.76308˚ 55.90767˚ 95 nm 95 nm 18° / 18° DAYRESTAN NDB-DME
O OAIX APT - 0 ft / 0 m 34.94614˚ 69.26497˚ 844 nm 939 nm 51° / 58° BAGRAM

Altitude Profile

Advertisement - Login to hide

Weather


0- 5 10 15 20 25 30 35+ Temperature / ° C

Clouds and Precipitation
Forecast for 2017-12-17 00:00 UTC. Updated 2 hours ago

Ground ~20,000 ft ~40,000 ft Winds

OMDB

Details ICAO OMDB (DXB)
Name DUBAI INTL
Region United Arab Emirates
Timezone Asia/Dubai (UTC+4.0)
Stats Elevation 62 ft / 19 m (AMSL)
Location 25.254912° 55.364260°
Runways 2
Magnetic Variation 2.047° E

METAR

OMDB 162100Z 10010KT CAVOK 20/14 Q1019 NOSIG

Decode

TAF

TAF OMDB 161709Z 1618/1800 08008KT 8000 FEW040 PROB30 TEMPO 1618/1621 02015G25KT FEW040CB PROB30 TEMPO 1706/1720 06020G30KT 3000 TSRA SCT040CB BECMG 1710/1712 01012KT BECMG 1716/1718 08008KT

Decode

Departure Runways

ID Width Length Bearing (true) Bearing (mag) Surface Threshold Offset Overrun Length
12L 197 ft / 60 m 13,124 ft / 4,000 m 121.49° 119.44° Asphalt 1,312 ft / 400 m 395 ft / 120 m
12R 151 ft / 46 m 13,139 ft / 4,005 m 121.48° 119.43° Asphalt 394 ft / 120 m 197 ft / 60 m
30L 151 ft / 46 m 13,139 ft / 4,005 m 301.50° 299.45° Asphalt 2,953 ft / 900 m 197 ft / 60 m
30R 197 ft / 60 m 13,124 ft / 4,000 m 301.51° 299.46° Asphalt 0 ft / 0 m 395 ft / 120 m

OAIX

Details ICAO OAIX (BPM)
Name BAGRAM
Region Afghanistan
Timezone Asia/Kabul (UTC+4.5)
Stats Elevation 4,895 ft / 1,492 m (AMSL)
Location 34.946139° 69.264972°
Runways 1
Magnetic Variation 3.270° E

METAR

OAIX 162058Z 20003KT 5000 HZ CLR M03/M06 A3041 RMK AO2A SLP291 T10291060 58004

Decode

TAF

TAF OAIX 161500Z 1615/1721 VRB06KT 5000 HZ SCT160 QNH3036INS BECMG 1623/1624 33006KT 4000 HZ SCT130 QNH3038INS BECMG 1705/1706 32006KT 5000 HZ SCT120 BKN150 QNH3038INS BECMG 1709/1710 32006KT 6000 HZ SCT120 BKN150 QNH3036INS BECMG 1714/1715 VRB06KT 8000 HZ SCT100 BKN130 QNH3042INS TX07/1709Z TNM04/1620Z

Decode

Destination Runways

ID Width Length Bearing (true) Bearing (mag) Surface Threshold Offset Overrun Length
03 180 ft / 55 m 9,865 ft / 3,007 m 28.90° 25.63° Concrete 0 ft / 0 m 0 ft / 0 m
21 180 ft / 55 m 9,865 ft / 3,007 m 208.91° 205.64° Concrete 0 ft / 0 m 0 ft / 0 m

Popular Alternatives